Time;durP1;ratioP1;P1;durP2;ratioP2;P2;SDS_P1;SDS_P2;PMS_P1;PMS_P2;Temp;Humidity;BMP_temperature;BMP_pressure;BME280_temperature;BME280_humidity;BME280_pressure;Samples;Min_cycle;Max_cycle;Signal;HPM_P1;HPM_P2
2022/02/28 00:00:16;;;;;;;27.70;11.77;;;;;;;-3.80;79.38;96685.50;4990103;28;20269;-73
2022/02/28 00:03:03;;;;;;;27.30;10.15;;;;;;;-3.89;79.54;96689.00;4987646;28;20478;-74
2022/02/28 00:05:30;;;;;;;28.40;9.68;;;;;;;-3.84;79.79;96684.19;4988464;28;20169;-73
2022/02/28 00:07:56;;;;;;;24.13;9.75;;;;;;;-3.83;80.73;96680.66;4989605;28;20042;-73
2022/02/28 00:10:22;;;;;;;30.88;10.98;;;;;;;-4.12;82.40;96684.31;4988683;28;20057;-73
2022/02/28 00:12:48;;;;;;;28.00;10.85;;;;;;;-4.07;82.42;96679.50;4987596;28;20416;-73
2022/02/28 00:15:15;;;;;;;29.42;10.90;;;;;;;-4.23;82.78;96684.53;4979490;28;20039;-73
2022/02/28 00:17:41;;;;;;;27.48;11.98;;;;;;;-4.12;82.40;96679.16;4988554;28;20053;-73
2022/02/28 00:20:09;;;;;;;33.22;10.85;;;;;;;-4.06;81.42;96683.72;4988920;28;20042;-73
2022/02/28 00:22:35;;;;;;;27.60;10.75;;;;;;;-4.09;81.34;96676.28;4987388;28;20066;-73
2022/02/28 00:25:01;;;;;;;26.40;10.57;;;;;;;-4.07;81.63;96679.50;4981178;28;20076;-73
2022/02/28 00:27:26;;;;;;;28.77;11.35;;;;;;;-4.13;81.40;96674.97;4985282;28;20487;-73
2022/02/28 00:29:52;;;;;;;33.00;11.80;;;;;;;-4.12;80.92;96671.44;4990219;28;20046;-73
2022/02/28 00:32:22;;;;;;;28.48;11.63;;;;;;;-4.12;81.52;96676.59;4986186;28;20110;-73
2022/02/28 00:34:48;;;;;;;30.98;11.52;;;;;;;-4.20;80.84;96668.81;4988185;28;20043;-73
2022/02/28 00:37:14;;;;;;;35.03;12.95;;;;;;;-4.24;82.06;96672.63;4988206;28;20062;-73
2022/02/28 00:39:41;;;;;;;33.72;11.48;;;;;;;-4.28;82.27;96666.16;4988213;28;20408;-73
2022/02/28 00:42:07;;;;;;;30.50;11.43;;;;;;;-4.16;82.12;96670.13;4986857;28;20794;-73
2022/02/28 00:44:32;;;;;;;35.05;11.75;;;;;;;-4.25;81.17;96671.00;4985062;28;20046;-72
2022/02/28 00:46:58;;;;;;;36.08;12.65;;;;;;;-4.35;82.02;96666.75;4989108;28;20062;-72
2022/02/28 00:49:23;;;;;;;37.58;12.43;;;;;;;-4.37;82.55;96673.81;4988602;28;20484;-72
2022/02/28 00:51:50;;;;;;;35.72;12.80;;;;;;;-4.53;83.65;96673.66;4986672;28;20053;-73
2022/02/28 00:54:15;;;;;;;36.92;12.73;;;;;;;-4.63;85.54;96672.91;4979367;28;20084;-72
2022/02/28 00:56:41;;;;;;;33.40;12.10;;;;;;;-4.55;83.60;96670.44;4989459;28;20117;-72
2022/02/28 00:59:06;;;;;;;34.33;13.05;;;;;;;-4.50;84.01;96673.34;4989338;28;20443;-72
2022/02/28 01:01:34;;;;;;;34.85;12.75;;;;;;;-4.64;83.12;96671.28;4988713;28;20114;-72
2022/02/28 01:04:00;;;;;;;35.13;12.70;;;;;;;-4.69;83.55;96669.16;4987314;28;20054;-72
2022/02/28 01:06:26;;;;;;;36.33;13.05;;;;;;;-4.75;83.24;96660.25;4989418;28;20034;-72
2022/02/28 01:08:51;;;;;;;37.25;12.02;;;;;;;-4.80;83.91;96652.16;4989015;28;20064;-72
2022/02/28 01:11:17;;;;;;;34.22;11.80;;;;;;;-4.83;84.48;96649.91;4989011;28;20475;-72
2022/02/28 01:13:42;;;;;;;35.65;12.30;;;;;;;-4.84;84.27;96650.88;4986370;28;20122;-72
2022/02/28 01:16:08;;;;;;;41.75;13.20;;;;;;;-4.81;85.09;96650.59;4988912;28;20725;-72
2022/02/28 01:18:33;;;;;;;42.55;12.85;;;;;;;-4.92;84.57;96648.22;4988735;28;20101;-71
2022/02/28 01:20:59;;;;;;;35.35;12.40;;;;;;;-4.99;84.44;96649.72;4987220;28;20057;-72
2022/02/28 01:23:24;;;;;;;35.45;13.20;;;;;;;-4.98;85.84;96653.94;4987637;28;20050;-72
2022/02/28 01:25:50;;;;;;;36.65;13.02;;;;;;;-5.03;84.93;96645.84;4976299;28;20547;-72
2022/02/28 01:28:16;;;;;;;33.22;11.88;;;;;;;-5.05;85.03;96653.69;4987776;28;20035;-71
2022/02/28 01:30:41;;;;;;;35.38;12.65;;;;;;;-5.01;85.77;96654.19;4988744;28;20169;-72
2022/02/28 01:33:07;;;;;;;36.58;12.10;;;;;;;-4.95;85.18;96653.63;4987880;28;20097;-71
2022/02/28 01:35:32;;;;;;;45.50;12.93;;;;;;;-5.00;85.10;96648.91;4978492;28;20050;-71
2022/02/28 01:37:58;;;;;;;34.55;11.65;;;;;;;-5.07;85.33;96645.28;4974330;28;20038;-72
2022/02/28 01:40:25;;;;;;;32.65;12.13;;;;;;;-5.11;85.93;96644.78;4987292;28;20323;-72
2022/02/28 01:42:51;;;;;;;32.25;12.18;;;;;;;-5.10;85.95;96645.59;4990034;28;20049;-72
2022/02/28 01:45:22;;;;;;;30.45;11.75;;;;;;;-5.16;86.51;96644.41;4980766;28;20073;-72
2022/02/28 01:47:54;;;;;;;32.97;11.98;;;;;;;-5.24;86.63;96639.97;4992531;28;20042;-72
2022/02/28 01:50:20;;;;;;;34.72;12.35;;;;;;;-5.27;86.30;96635.16;4987798;28;20043;-72
2022/02/28 01:52:48;;;;;;;33.53;11.70;;;;;;;-5.26;86.22;96641.06;4986672;28;20057;-72
2022/02/28 01:55:16;;;;;;;35.50;11.95;;;;;;;-5.10;85.90;96641.28;4989665;28;20045;-72
2022/02/28 01:57:42;;;;;;;38.63;12.05;;;;;;;-5.21;85.77;96638.91;4993167;28;20786;-72
2022/02/28 02:00:10;;;;;;;35.63;12.07;;;;;;;-5.20;86.03;96644.84;4992168;28;20046;-71
2022/02/28 02:02:36;;;;;;;42.58;12.07;;;;;;;-5.25;86.26;96633.22;4989561;28;20046;-71
2022/02/28 02:05:02;;;;;;;35.53;13.30;;;;;;;-5.32;86.35;96636.53;4992436;28;20046;-72
2022/02/28 02:07:29;;;;;;;35.67;12.02;;;;;;;-5.34;86.99;96634.09;4992837;28;20047;-72
2022/02/28 02:09:58;;;;;;;35.88;11.88;;;;;;;-5.44;88.12;96644.38;4988582;28;20049;-72
2022/02/28 02:12:28;;;;;;;35.78;12.15;;;;;;;-5.40;87.26;96650.06;4990621;28;20045;-71
2022/02/28 02:14:55;;;;;;;39.40;12.70;;;;;;;-5.40;86.90;96644.94;4992155;28;20073;-71
2022/02/28 02:17:21;;;;;;;37.85;11.80;;;;;;;-5.38;87.13;96647.34;4991248;28;20034;-72
2022/02/28 02:19:46;;;;;;;38.72;12.68;;;;;;;-5.46;87.66;96651.44;4989626;28;20120;-72
2022/02/28 02:22:20;;;;;;;35.05;12.02;;;;;;;-5.45;87.34;96647.91;4992224;28;20068;-73
2022/02/28 02:24:46;;;;;;;41.43;13.27;;;;;;;-5.52;87.53;96646.03;4987285;28;20112;-73
2022/02/28 02:27:12;;;;;;;39.97;11.82;;;;;;;-5.54;87.46;96650.53;4991283;28;20046;-72
2022/02/28 02:29:38;;;;;;;39.75;13.00;;;;;;;-5.53;87.34;96645.25;4991987;28;20100;-72
2022/02/28 02:32:14;;;;;;;33.03;12.15;;;;;;;-5.49;86.44;96651.69;4983096;28;20043;-71
2022/02/28 02:34:40;;;;;;;38.08;12.40;;;;;;;-5.61;86.95;96657.94;4982151;28;20051;-71
2022/02/28 02:37:06;;;;;;;37.13;12.05;;;;;;;-5.71;87.82;96663.09;4973237;28;20097;-72
2022/02/28 02:39:32;;;;;;;36.85;11.65;;;;;;;-5.66;87.61;96665.25;4982475;28;20047;-72
2022/02/28 02:41:58;;;;;;;36.45;12.43;;;;;;;-5.69;87.74;96665.53;4989420;28;20042;-72
2022/02/28 02:44:34;;;;;;;32.70;11.80;;;;;;;-5.81;87.47;96663.13;4988450;28;20049;-71
2022/02/28 02:47:00;;;;;;;30.92;11.60;;;;;;;-5.90;87.80;96653.69;4993947;28;20698;-71
2022/02/28 02:49:28;;;;;;;38.25;12.75;;;;;;;-5.95;87.38;96663.53;4976797;28;20495;-72
2022/02/28 02:51:53;;;;;;;34.45;12.63;;;;;;;-5.90;88.30;96663.97;4973661;28;20085;-72
2022/02/28 02:54:19;;;;;;;34.67;12.25;;;;;;;-5.89;87.90;96660.44;4980468;28;20117;-72
2022/02/28 02:56:45;;;;;;;31.55;11.82;;;;;;;-5.91;88.19;96662.34;4989599;28;20057;-72
2022/02/28 02:59:10;;;;;;;33.47;12.30;;;;;;;-5.85;88.14;96666.91;4992195;28;20042;-72
2022/02/28 03:01:36;;;;;;;34.42;12.68;;;;;;;-5.88;89.03;96666.38;4991137;28;20065;-72
2022/02/28 03:04:02;;;;;;;38.45;12.65;;;;;;;-5.85;88.94;96666.91;4980256;28;20054;-72
2022/02/28 03:06:28;;;;;;;41.78;14.35;;;;;;;-5.91;89.24;96667.47;4990568;28;20114;-72
2022/02/28 03:08:55;;;;;;;40.85;12.68;;;;;;;-5.98;88.98;96671.53;4988757;28;20053;-72
2022/02/28 03:11:22;;;;;;;31.00;12.57;;;;;;;-5.93;89.02;96669.38;4982276;28;20050;-72
2022/02/28 03:13:48;;;;;;;42.05;12.95;;;;;;;-5.93;88.03;96674.50;4990546;28;20038;-72
2022/02/28 03:16:14;;;;;;;36.55;12.63;;;;;;;-5.94;88.68;96667.75;4989966;28;20491;-72
2022/02/28 03:18:39;;;;;;;40.97;13.40;;;;;;;-5.93;88.77;96679.63;4991693;28;20057;-72
2022/02/28 03:21:05;;;;;;;43.78;13.80;;;;;;;-5.94;89.30;96678.78;4988416;28;20605;-72
2022/02/28 03:23:33;;;;;;;40.47;13.10;;;;;;;-5.93;89.33;96685.53;4990218;28;20158;-71
2022/02/28 03:26:00;;;;;;;40.88;13.85;;;;;;;-5.96;89.50;96682.44;4985001;28;20069;-71
2022/02/28 03:28:26;;;;;;;41.42;14.07;;;;;;;-5.93;89.11;96689.88;4991007;28;20046;-72
2022/02/28 03:30:52;;;;;;;40.28;13.70;;;;;;;-5.97;89.07;96686.75;4989125;28;20539;-72
2022/02/28 03:33:17;;;;;;;40.13;13.50;;;;;;;-5.91;89.79;96682.84;4980932;28;20097;-72
2022/02/28 03:35:43;;;;;;;39.45;12.88;;;;;;;-5.86;90.04;96685.81;4989170;28;20054;-71
2022/02/28 03:38:08;;;;;;;45.83;14.25;;;;;;;-5.93;90.92;96684.75;4991059;28;20089;-72
2022/02/28 03:40:34;;;;;;;41.60;14.02;;;;;;;-5.98;89.80;96676.69;4984990;28;20047;-72
2022/02/28 03:43:05;;;;;;;38.80;13.27;;;;;;;-5.93;89.47;96684.75;4984053;28;20054;-72
2022/02/28 03:45:31;;;;;;;43.03;13.30;;;;;;;-5.95;90.20;96681.50;4990645;28;20042;-72
2022/02/28 03:47:57;;;;;;;39.17;13.70;;;;;;;-5.97;89.79;96680.88;4990156;28;20508;-71
2022/02/28 03:50:24;;;;;;;41.83;13.57;;;;;;;-5.96;89.61;96682.44;4985817;28;20100;-72
2022/02/28 03:52:53;;;;;;;47.72;14.80;;;;;;;-5.90;89.14;96676.78;4988386;28;20050;-72
2022/02/28 03:55:22;;;;;;;40.05;13.25;;;;;;;-5.97;88.77;96683.44;4984810;28;20049;-72
2022/02/28 03:57:48;;;;;;;39.75;12.77;;;;;;;-5.98;89.17;96679.25;4986548;28;20046;-71
2022/02/28 04:00:14;;;;;;;43.22;14.15;;;;;;;-6.08;89.24;96681.81;4989912;28;20038;-72
2022/02/28 04:02:40;;;;;;;38.13;12.88;;;;;;;-6.09;89.69;96690.47;4990061;28;20053;-72
2022/02/28 04:05:07;;;;;;;38.05;13.32;;;;;;;-6.12;90.35;96686.41;4987721;28;20068;-72
2022/02/28 04:07:33;;;;;;;35.08;13.20;;;;;;;-6.17;89.89;96688.56;4990440;28;20057;-72
2022/02/28 04:09:59;;;;;;;39.78;13.40;;;;;;;-6.19;90.21;96684.50;4980919;28;20404;-72
2022/02/28 04:12:25;;;;;;;33.83;12.27;;;;;;;-6.20;90.52;96688.81;4986090;28;20054;-71
2022/02/28 04:14:51;;;;;;;37.42;12.45;;;;;;;-6.29;90.66;96679.41;4971063;28;20126;-72
2022/02/28 04:17:16;;;;;;;37.53;13.38;;;;;;;-6.27;91.05;96682.63;4985530;28;20101;-72
2022/02/28 04:19:42;;;;;;;35.30;13.50;;;;;;;-6.30;90.56;96676.00;4989940;28;20046;-71
2022/02/28 04:22:08;;;;;;;44.30;13.40;;;;;;;-6.34;91.10;96673.84;4978849;28;20038;-71
2022/02/28 04:24:34;;;;;;;38.50;12.60;;;;;;;-6.39;91.26;96674.28;4984809;28;20034;-71
2022/02/28 04:26:59;;;;;;;35.83;12.23;;;;;;;-6.45;91.55;96675.63;4987433;28;20429;-72
2022/02/28 04:29:25;;;;;;;42.17;12.45;;;;;;;-6.48;91.75;96681.00;4981755;28;20046;-72
2022/02/28 04:31:51;;;;;;;41.38;12.98;;;;;;;-6.51;91.10;96681.25;4988402;28;20038;-72
2022/02/28 04:34:16;;;;;;;41.72;13.48;;;;;;;-6.55;91.13;96687.59;4989318;28;20061;-72
2022/02/28 04:36:42;;;;;;;34.33;11.82;;;;;;;-6.59;91.25;96683.69;4989419;28;20038;-72
2022/02/28 04:39:09;;;;;;;35.20;12.90;;;;;;;-6.60;91.25;96687.19;4989344;28;20042;-72
2022/02/28 04:41:34;;;;;;;43.30;12.18;;;;;;;-6.61;91.13;96685.56;4988095;28;20096;-72
2022/02/28 04:44:00;;;;;;;41.00;13.25;;;;;;;-6.64;91.13;96685.81;4989181;28;20058;-72
2022/02/28 04:46:26;;;;;;;44.78;13.57;;;;;;;-6.76;91.50;96685.13;4989035;28;20092;-71
2022/02/28 04:48:51;;;;;;;38.70;12.27;;;;;;;-6.73;91.73;96686.63;4985158;28;20057;-72
2022/02/28 04:51:17;;;;;;;33.55;11.32;;;;;;;-6.72;91.20;96683.09;4986395;28;20045;-72
2022/02/28 04:53:43;;;;;;;37.65;12.98;;;;;;;-6.76;91.38;96677.47;4987466;28;20522;-72
2022/02/28 04:56:08;;;;;;;37.20;12.50;;;;;;;-6.75;91.01;96683.38;4987233;28;20569;-72
2022/02/28 04:58:34;;;;;;;35.72;12.70;;;;;;;-6.86;90.89;96692.78;4988542;28;20089;-72
2022/02/28 05:00:59;;;;;;;28.98;11.52;;;;;;;-6.87;91.70;96696.28;4988043;28;20061;-72
2022/02/28 05:03:25;;;;;;;37.30;12.88;;;;;;;-6.90;91.36;96691.44;4984929;28;20046;-72
2022/02/28 05:05:51;;;;;;;32.92;12.05;;;;;;;-6.89;91.23;96705.84;4988032;28;20034;-72
2022/02/28 05:08:16;;;;;;;37.50;12.20;;;;;;;-6.93;92.35;96699.38;4980971;28;20676;-72
2022/02/28 05:10:42;;;;;;;39.35;13.52;;;;;;;-6.99;91.08;96698.13;4987987;28;20392;-72
2022/02/28 05:13:09;;;;;;;35.15;12.30;;;;;;;-6.96;91.93;96697.06;4982990;28;20038;-72
2022/02/28 05:15:34;;;;;;;37.05;11.60;;;;;;;-6.97;91.74;96703.13;4987421;28;20567;-72
2022/02/28 05:18:00;;;;;;;36.30;12.55;;;;;;;-6.95;91.30;96696.16;4988019;28;20054;-72
2022/02/28 05:20:25;;;;;;;32.35;12.55;;;;;;;-6.95;91.08;96703.81;4984910;28;20158;-72
2022/02/28 05:22:51;;;;;;;34.67;11.60;;;;;;;-6.88;91.79;96694.69;4988240;28;20558;-72
2022/02/28 05:25:17;;;;;;;38.17;12.93;;;;;;;-6.96;91.82;96697.06;4987083;28;20053;-72
2022/02/28 05:27:46;;;;;;;38.50;12.27;;;;;;;-7.07;91.69;96695.41;4988814;28;20566;-72
2022/02/28 05:30:13;;;;;;;32.38;11.02;;;;;;;-7.13;91.33;96701.06;4989219;28;20062;-72
2022/02/28 05:32:41;;;;;;;35.47;11.63;;;;;;;-7.09;91.63;96691.38;4983672;28;20055;-71
2022/02/28 05:35:09;;;;;;;39.20;13.27;;;;;;;-7.11;91.62;96690.69;4984343;28;20471;-71
2022/02/28 05:37:34;;;;;;;29.20;11.60;;;;;;;-7.16;92.00;96691.09;4982395;28;20476;-71
2022/02/28 05:40:00;;;;;;;36.25;12.50;;;;;;;-7.14;92.27;96695.13;4979600;28;20078;-71
2022/02/28 05:42:26;;;;;;;32.25;11.73;;;;;;;-7.14;91.05;96689.19;4986413;28;20510;-71
2022/02/28 05:44:51;;;;;;;30.38;12.23;;;;;;;-7.08;91.58;96687.88;4989372;28;20108;-71
2022/02/28 05:47:17;;;;;;;32.03;11.15;;;;;;;-7.10;91.81;96692.31;4985049;28;20038;-71
2022/02/28 05:49:43;;;;;;;40.80;12.32;;;;;;;-7.14;91.30;96700.25;4982659;28;20804;-71
2022/02/28 05:52:09;;;;;;;36.20;12.23;;;;;;;-7.13;92.17;96701.84;4985372;28;20073;-71
2022/02/28 05:54:36;;;;;;;33.05;12.38;;;;;;;-7.08;91.89;96703.22;4983020;28;20077;-71
2022/02/28 05:57:04;;;;;;;38.15;12.13;;;;;;;-7.13;92.06;96698.50;4983851;28;20047;-71
2022/02/28 05:59:31;;;;;;;32.88;11.98;;;;;;;-7.13;91.92;96706.97;4987675;28;20133;-71
2022/02/28 06:01:56;;;;;;;33.97;11.23;;;;;;;-7.10;91.38;96700.00;4985777;28;20046;-72
2022/02/28 06:04:22;;;;;;;39.20;12.30;;;;;;;-7.05;91.27;96708.06;4975681;28;20077;-72
2022/02/28 06:06:48;;;;;;;35.00;13.15;;;;;;;-7.08;91.88;96708.34;4988704;28;20041;-72
2022/02/28 06:09:13;;;;;;;36.90;12.38;;;;;;;-7.07;91.98;96713.31;4987270;28;20149;-72
2022/02/28 06:11:39;;;;;;;38.95;13.07;;;;;;;-7.01;91.55;96724.78;4983901;28;20511;-72
2022/02/28 06:14:04;;;;;;;37.53;12.82;;;;;;;-7.06;91.47;96721.81;4988308;28;20058;-72
2022/02/28 06:16:30;;;;;;;35.70;12.20;;;;;;;-6.99;91.43;96738.28;4988857;28;20062;-72
2022/02/28 06:18:56;;;;;;;29.77;11.70;;;;;;;-6.99;90.77;96735.72;4987448;28;20118;-71
2022/02/28 06:21:21;;;;;;;33.28;12.45;;;;;;;-6.99;91.33;96738.28;4977452;28;20051;-71
2022/02/28 06:23:47;;;;;;;36.42;12.95;;;;;;;-6.92;91.62;96744.50;4969229;28;20485;-72
2022/02/28 06:26:13;;;;;;;36.35;13.20;;;;;;;-6.88;90.66;96738.19;4987247;28;20050;-71
2022/02/28 06:28:38;;;;;;;40.00;12.05;;;;;;;-6.85;90.82;96740.50;4988395;28;20077;-70
2022/02/28 06:31:06;;;;;;;35.47;13.10;;;;;;;-6.79;89.99;96745.06;4991661;28;20628;-70
2022/02/28 06:33:32;;;;;;;31.25;11.05;;;;;;;-6.71;90.46;96747.00;4990209;28;20050;-70
2022/02/28 06:35:58;;;;;;;38.10;12.07;;;;;;;-6.77;91.07;96746.72;4988238;28;20041;-70
2022/02/28 06:38:26;;;;;;;34.38;12.18;;;;;;;-6.72;91.55;96739.44;4980167;28;20400;-70
2022/02/28 06:40:52;;;;;;;27.88;11.13;;;;;;;-6.68;91.33;96745.91;4990424;28;20042;-70
2022/02/28 06:43:24;;;;;;;37.35;12.88;;;;;;;-6.70;91.74;96747.81;4987888;28;20074;-70
2022/02/28 06:45:52;;;;;;;38.10;12.20;;;;;;;-6.72;92.11;96747.09;4990850;28;20046;-70
2022/02/28 06:48:18;;;;;;;37.65;13.05;;;;;;;-6.71;92.27;96751.31;4992228;28;20042;-70
2022/02/28 06:50:45;;;;;;;30.30;12.38;;;;;;;-6.68;91.30;96745.91;4991522;28;20555;-70
2022/02/28 06:53:11;;;;;;;39.42;12.40;;;;;;;-6.56;92.00;96744.88;4985355;28;20042;-70
2022/02/28 06:55:43;;;;;;;37.97;12.35;;;;;;;-6.42;91.70;96756.50;4983455;28;20049;-70
2022/02/28 06:58:09;;;;;;;39.58;12.40;;;;;;;-6.30;91.74;96750.31;4973035;28;20039;-70
2022/02/28 07:00:34;;;;;;;29.92;11.88;;;;;;;-6.22;92.03;96756.50;4987019;28;20045;-70
2022/02/28 07:03:00;;;;;;;37.05;12.73;;;;;;;-6.08;91.70;96752.75;4985581;28;20443;-70
2022/02/28 07:05:26;;;;;;;38.83;13.57;;;;;;;-6.10;91.80;96751.13;4991773;28;20503;-70
2022/02/28 07:07:51;;;;;;;40.30;12.93;;;;;;;-6.04;92.07;96746.44;4988324;28;20038;-70
2022/02/28 07:10:17;;;;;;;53.38;12.13;;;;;;;-5.81;92.32;96754.63;4986465;28;20039;-71
2022/02/28 07:12:43;;;;;;;35.33;12.25;;;;;;;-5.69;91.44;96747.59;4975347;28;20941;-70
2022/02/28 07:15:10;;;;;;;44.60;14.27;;;;;;;-5.66;91.43;96742.19;4972033;28;20055;-70
2022/02/28 07:17:36;;;;;;;46.08;13.55;;;;;;;-5.60;91.13;96746.78;4977825;28;20054;-70
2022/02/28 07:20:02;;;;;;;50.17;14.15;;;;;;;-5.61;91.19;96745.16;4971985;28;20047;-70
2022/02/28 07:22:28;;;;;;;34.63;13.30;;;;;;;-5.52;92.35;96749.44;4981260;28;20046;-70
2022/02/28 07:24:53;;;;;;;43.45;14.45;;;;;;;-5.10;91.53;96754.22;4979563;28;20439;-71
2022/02/28 07:27:19;;;;;;;35.28;13.35;;;;;;;-4.89;90.56;96753.19;4976020;28;20058;-70
2022/02/28 07:29:45;;;;;;;35.90;13.10;;;;;;;-4.78;91.18;96752.22;4976462;28;20756;-70
2022/02/28 07:32:10;;;;;;;36.38;14.90;;;;;;;-4.58;90.03;96752.94;4990986;28;20048;-70
2022/02/28 07:34:36;;;;;;;41.53;15.45;;;;;;;-4.58;89.04;96758.06;4983299;28;20794;-71
2022/02/28 07:37:01;;;;;;;33.83;12.88;;;;;;;-4.64;89.73;96763.75;4984454;28;20153;-71
2022/02/28 07:39:28;;;;;;;35.00;13.15;;;;;;;-4.66;90.25;96770.81;4989174;28;20078;-71
2022/02/28 07:41:57;;;;;;;40.40;13.27;;;;;;;-4.67;90.45;96766.63;4984489;28;20039;-71
2022/02/28 07:44:22;;;;;;;38.33;15.05;;;;;;;-4.61;90.73;96764.28;4978650;28;20043;-71
2022/02/28 07:46:48;;;;;;;36.25;14.88;;;;;;;-4.54;90.38;96764.50;4988869;28;20035;-73
2022/02/28 07:49:13;;;;;;;38.15;15.18;;;;;;;-4.39;91.17;96763.09;4997426;28;20500;-71
2022/02/28 07:51:39;;;;;;;43.05;15.63;;;;;;;-3.97;88.99;96771.22;4988478;28;20067;-71
2022/02/28 07:54:05;;;;;;;47.63;15.70;;;;;;;-3.82;88.31;96774.91;4989082;28;20474;-72
2022/02/28 07:56:31;;;;;;;43.35;16.08;;;;;;;-3.59;86.85;96775.25;4983827;28;20042;-71
2022/02/28 07:58:57;;;;;;;35.28;14.20;;;;;;;-3.63;86.36;96779.06;4990916;28;20113;-71
2022/02/28 08:01:22;;;;;;;41.05;15.57;;;;;;;-3.77;86.85;96772.66;4990573;28;20061;-71
2022/02/28 08:03:47;;;;;;;39.00;15.95;;;;;;;-3.77;87.31;96777.03;4988702;28;20042;-70
2022/02/28 08:06:13;;;;;;;40.25;15.50;;;;;;;-3.45;85.33;96776.44;4987522;28;20106;-71
2022/02/28 08:08:39;;;;;;;39.22;15.65;;;;;;;-3.52;85.35;96775.44;4990444;28;20043;-71
2022/02/28 08:11:04;;;;;;;47.20;15.98;;;;;;;-3.59;86.27;96774.41;4988708;28;20046;-73
2022/02/28 08:13:30;;;;;;;42.75;15.80;;;;;;;-3.58;86.37;96770.91;4983645;28;20073;-71
2022/02/28 08:15:57;;;;;;;43.70;15.45;;;;;;;-3.63;86.81;96773.09;4989247;28;20120;-70
2022/02/28 08:18:23;;;;;;;39.30;15.25;;;;;;;-3.31;85.91;96777.69;4980082;28;20050;-71
2022/02/28 08:20:48;;;;;;;52.22;16.45;;;;;;;-3.08;84.87;96777.19;4979409;28;20050;-71
2022/02/28 08:23:14;;;;;;;47.97;15.90;;;;;;;-3.22;86.31;96775.97;4982227;28;20790;-72
2022/02/28 08:25:42;;;;;;;44.38;16.55;;;;;;;-3.22;85.97;96770.81;4979741;28;20097;-70
2022/02/28 08:28:07;;;;;;;52.50;17.75;;;;;;;-3.10;85.23;96769.63;4977783;28;20046;-69
2022/02/28 08:30:33;;;;;;;42.75;15.27;;;;;;;-2.89;83.72;96778.75;4975889;28;20062;-72
2022/02/28 08:32:59;;;;;;;52.63;16.42;;;;;;;-2.97;84.78;96775.16;4987019;28;20526;-72
2022/02/28 08:35:24;;;;;;;47.60;16.30;;;;;;;-2.99;84.83;96777.09;4980101;28;20070;-74
2022/02/28 08:37:50;;;;;;;45.22;16.83;;;;;;;-2.94;84.83;96778.38;4984025;28;20046;-75
2022/02/28 08:40:15;;;;;;;46.22;16.40;;;;;;;-2.89;84.37;96774.38;4981351;28;20042;-74
2022/02/28 08:42:41;;;;;;;39.38;15.77;;;;;;;-2.64;83.52;96775.31;4981069;28;20050;-74
2022/02/28 08:45:08;;;;;;;36.28;15.23;;;;;;;-2.67;83.29;96773.06;4987323;28;20694;-77
2022/02/28 08:47:34;;;;;;;42.10;16.40;;;;;;;-2.59;83.29;96774.84;4989379;28;20535;-75
2022/02/28 08:50:01;;;;;;;45.38;16.15;;;;;;;-2.58;83.71;96773.09;4984972;28;20369;-73
2022/02/28 08:52:27;;;;;;;43.30;16.02;;;;;;;-2.46;82.70;96766.69;4986379;28;20038;-73
2022/02/28 08:54:53;;;;;;;46.63;16.25;;;;;;;-2.45;82.80;96774.25;4986429;28;20419;-72
2022/02/28 08:57:21;;;;;;;41.58;15.77;;;;;;;-2.36;82.18;96772.50;4983658;28;20042;-71
2022/02/28 08:59:47;;;;;;;40.58;15.65;;;;;;;-2.33;82.63;96779.97;4975045;28;20042;-71
2022/02/28 09:02:13;;;;;;;36.17;15.35;;;;;;;-2.05;79.67;96764.22;4986106;28;20121;-71
2022/02/28 09:04:39;;;;;;;38.60;15.15;;;;;;;-1.99;80.71;96773.91;4986246;28;20041;-72
2022/02/28 09:07:04;;;;;;;39.13;14.82;;;;;;;-1.55;77.71;96772.00;4974530;28;20066;-72
2022/02/28 09:09:30;;;;;;;36.67;13.68;;;;;;;-1.38;76.92;96776.19;4970650;28;20039;-72
2022/02/28 09:11:55;;;;;;;43.90;14.43;;;;;;;-1.36;76.85;96774.25;4971281;28;20034;-72
2022/02/28 09:14:21;;;;;;;47.88;15.10;;;;;;;-1.44;76.48;96771.66;4977354;28;20051;-72
2022/02/28 09:16:47;;;;;;;40.97;15.05;;;;;;;-1.34;78.01;96777.47;4988974;28;20058;-72
2022/02/28 09:19:13;;;;;;;36.28;14.18;;;;;;;-1.37;75.99;96777.81;4978573;28;20181;-72
2022/02/28 09:21:41;;;;;;;39.63;12.63;;;;;;;-1.28;77.73;96787.16;4981092;28;20703;-72
2022/02/28 09:24:07;;;;;;;35.90;14.73;;;;;;;-1.06;75.95;96779.72;4980796;28;20394;-72
2022/02/28 09:26:37;;;;;;;36.00;13.57;;;;;;;-0.87;75.19;96789.66;4981461;28;20038;-72
2022/02/28 09:29:05;;;;;;;35.42;12.88;;;;;;;-1.01;74.03;96787.75;4983294;28;20046;-72
2022/02/28 09:31:32;;;;;;;37.28;13.73;;;;;;;-0.76;71.53;96785.13;4976983;28;20035;-72
2022/02/28 09:33:58;;;;;;;41.55;14.15;;;;;;;-0.72;73.48;96781.22;4976978;28;20047;-73
2022/02/28 09:36:24;;;;;;;51.15;14.25;;;;;;;-0.58;72.10;96783.13;4984852;28;20050;-73
2022/02/28 09:38:49;;;;;;;34.40;13.70;;;;;;;-0.62;73.04;96774.06;4990515;28;20042;-73
2022/02/28 09:41:17;;;;;;;40.38;14.52;;;;;;;-0.49;72.39;96770.16;4986781;28;20042;-73
2022/02/28 09:43:44;;;;;;;57.67;17.48;;;;;;;-0.50;72.27;96773.72;4986869;28;20555;-73
2022/02/28 09:46:10;;;;;;;45.90;13.95;;;;;;;-0.24;69.84;96769.06;4990101;28;20047;-73
2022/02/28 09:48:37;;;;;;;37.00;14.40;;;;;;;-0.26;71.34;96770.22;4989017;28;20563;-73
2022/02/28 09:51:02;;;;;;;35.45;14.35;;;;;;;-0.27;71.23;96769.41;4972291;28;20100;-73
2022/02/28 09:53:28;;;;;;;38.67;14.57;;;;;;;-0.25;71.21;96767.47;4975750;28;20046;-74
2022/02/28 09:55:54;;;;;;;39.60;15.32;;;;;;;-0.09;70.06;96776.91;4983894;28;20049;-73
2022/02/28 09:58:29;;;;;;;40.60;14.32;;;;;;;0.29;70.01;96778.81;4989196;28;20047;-73
2022/02/28 10:00:56;;;;;;;40.92;14.05;;;;;;;0.36;67.79;96773.72;4989562;28;20073;-73
2022/02/28 10:03:24;;;;;;;37.47;13.70;;;;;;;0.55;66.95;96782.78;4982267;28;20042;-73
2022/02/28 10:05:51;;;;;;;40.95;14.98;;;;;;;0.67;66.49;96771.03;4979476;28;20496;-73
2022/02/28 10:08:16;;;;;;;42.78;14.85;;;;;;;1.01;66.87;96778.34;4993457;28;20066;-73
2022/02/28 10:10:47;;;;;;;50.78;14.93;;;;;;;1.40;65.80;96773.09;4989437;28;20462;-73
2022/02/28 10:13:12;;;;;;;42.20;15.50;;;;;;;1.87;63.38;96775.25;4992255;28;20042;-73
2022/02/28 10:15:38;;;;;;;45.83;15.45;;;;;;;2.24;60.00;96768.25;4992152;28;20050;-73
2022/02/28 10:18:06;;;;;;;35.35;13.95;;;;;;;3.54;56.77;96767.94;4991025;28;20500;-72
2022/02/28 10:20:37;;;;;;;37.60;14.57;;;;;;;4.54;54.15;96762.22;4991265;28;20495;-72
2022/02/28 10:23:12;;;;;;;41.55;15.80;;;;;;;3.85;54.04;96753.66;4992609;28;20510;-72
2022/02/28 10:25:42;;;;;;;;;;;;;;;4.12;53.55;96759.75;4983879;28;20038;-72
2022/02/28 10:28:18;;;;;;;44.20;15.82;;;;;;;4.33;53.40;96750.94;4988668;28;19942;-73
2022/02/28 10:31:03;;;;;;;46.20;17.70;;;;;;;4.73;51.80;96754.59;4980978;28;20108;-73
2022/02/28 10:33:34;;;;;;;51.92;17.40;;;;;;;5.97;47.69;96749.44;4982757;28;20412;-73
2022/02/28 10:36:21;;;;;;;44.33;17.10;;;;;;;6.67;46.66;96743.38;4986110;28;20132;-73
2022/02/28 10:38:50;;;;;;;60.78;18.75;;;;;;;6.48;46.76;96750.34;4980876;28;20046;-73
2022/02/28 10:41:27;;;;;;;50.85;18.58;;;;;;;6.59;47.09;96739.19;4983461;28;20073;-73
2022/02/28 10:43:56;;;;;;;40.15;17.02;;;;;;;8.23;44.72;96750.13;4981572;28;20039;-72
2022/02/28 10:46:29;;;;;;;37.65;16.15;;;;;;;8.43;41.55;96740.16;4989501;28;20118;-74
2022/02/28 10:49:03;;;;;;;34.60;15.25;;;;;;;7.58;44.47;96743.69;4991317;28;20034;-72
2022/02/28 10:51:31;;;;;;;32.33;13.32;;;;;;;9.32;40.15;96744.56;4989194;28;20511;-73
2022/02/28 10:54:26;;;;;;;27.38;11.60;;;;;;;10.39;37.53;96728.44;4987643;28;20049;-73
2022/02/28 10:56:54;;;;;;;21.00;10.70;;;;;;;10.63;35.50;96723.03;4970153;28;20102;-74
2022/02/28 10:59:23;;;;;;;19.70;10.25;;;;;;;9.35;37.58;96733.59;4972738;28;20050;-73
2022/02/28 11:01:50;;;;;;;14.75;8.50;;;;;;;8.37;39.36;96735.78;4988369;28;20044;-72
2022/02/28 11:04:15;;;;;;;16.83;7.70;;;;;;;8.03;39.09;96732.03;4987060;28;20064;-73
2022/02/28 11:06:46;;;;;;;13.77;8.57;;;;;;;7.52;39.83;96728.84;4991441;28;20488;-73
2022/02/28 11:09:11;;;;;;;14.80;8.73;;;;;;;8.32;37.33;96728.59;4989854;28;20093;-73
2022/02/28 11:11:37;;;;;;;14.20;7.53;;;;;;;8.65;37.02;96723.91;4990486;28;20443;-72
2022/02/28 11:14:03;;;;;;;16.25;8.90;;;;;;;7.29;39.99;96725.06;4977986;28;20749;-73
2022/02/28 11:16:30;;;;;;;13.57;8.20;;;;;;;8.92;36.66;96731.31;4990914;28;20050;-73